Warning: Javascript must be enabled to use all the features on this page!


Page Loading - Please Wait...

Click to hideNews Bulletins

Peak Streamflow for the Nation

USGS 04100500 ELKHART RIVER AT GOSHEN, IN

Elkhart County, Indiana
Hydrologic Unit Code 04050001
Latitude  41°35'36", Longitude  85°50'55" NAD27
Drainage area 594  square miles
Gage datum 769.15 feet above NAVD88
Output formats
Table
Graph
Tab-separated file
peakfq (watstore) format
Reselect output format
Water
Year
Date Gage
Height
(feet)
Stream-
flow
(cfs)
1925 1925-03-20 5.80 2,0002
1926 1926-02-27 6.70 2,5802
1927 1927-04-20 6.50 2,4402
1928 1927-12-14 9.30 4,6601
1932 1932-02-12 6.54 2,660
1933 1933-04-18 7.05 3,060
1934 1934-04-02 4.41 1,220
1935 1935-05-14 4.52 1,310
1936 1936-02-25 6.78 2,820
1937 1937-01-15 5.07 1,580
1938 1938-04-10 6.16 2,380
1939 1939-03-13 8.45 3,940
1940 1940-05-02 6.91 2,770
1941 1941-04-03 3.36 701
1942 1942-03-17 7.15 2,820
1943 1943-05-25 9.46 5,090
1944 1944-03-16 7.66 3,450
1945 1945-05-18 6.41 2,300
1946 1945-10-02 7.55 3,360
1947 1947-04-21 7.56 3,360
1948 1948-02-29 6.72 2,590
1949 1949-02-15 6.64 2,510
1950 1950-04-04 10.15 5,440
1951 1951-07-10 10.33 5,260
1952 1952-01-02 6.40 2,310
1953 1953-03-16 4.23 1,160
1954 1954-04-26 8.14 3,480
1955 1954-10-11 10.27 5,260
1956 1956-04-30 9.25 4,320
1957 1957-04-12 5.52 1,820
1958 1957-12-21 5.22 1,660
1959 1959-02-14 7.34 2,910
1960 1960-04-18 7.29 2,910
1961 1961-04-23 7.57 3,120
1962 1962-03-12 7.90 3,330
1963 1963-03-14 5.401 1,650
1964 1964-04-22 3.72 830
1965 1965-04-26 5.40 1,840
1966 1965-12-26 8.75 3,960
1967 1966-12-09 6.95 2,740
1968 1968-02-02 8.81 4,010
1969 1969-01-30 7.85 3,300
1970 1970-04-21 6.15 2,250
1971 1971-02-06 6.04 2,020
1972 1972-04-17 5.44 1,830
1973 1972-12-31 7.64 3,150
1974 1974-03-08 6.69 2,550
1975 1975-06-16 5.58 1,890
1976 1976-03-05 7.83 3,280
1977 1977-03-29 6.69 2,550
1978 1978-03-23 9.76 4,410
1979 1979-03-05 10.33 4,850
1980 1980-04-05 6.44 2,390
1981 1981-06-14 8.26 3,480
1982 1982-03-14 11.94 6,180
1983 1983-05-03 7.53 3,070
1984 1984-02-14 6.44 2,400
1985 1985-02-24 11.87 6,360
1986 1985-12-12 5.37 1,810
1987 1986-10-04 6.65 2,580
1988 1988-04-07 7.90 3,390
1989 1989-06-02 8.40 3,720
1990 1990-02-23 8.66 3,900
1991 1990-12-30 11.03 5,530
1992 1992-09-11 4.86 1,530
1993 1993-06-09 10.09 4,870
1994 1993-10-18 5.53 1,900
1995 1995-04-11 5.49 1,880
1996 1996-06-10 9.24 4,290
1997 1997-02-22 7.83 3,340
1998 1998-01-09 7.68 3,240
1999 1999-04-24   3,3001,2
2000 2000-04-21 5.12 1,670
2001 2001-02-10 8.66 3,900
2002 2002-05-13 9.57 4,510
2003 2003-05-10 4.96 1,550
2004 2004-06-13 8.24 3,610
2005 2005-01-14 9.01 4,140
2006 2006-07-12 5.80 2,040
2007 2007-08-23 6.61 2,540
2008 2008-02-06 10.39 5,080
2009 2009-03-12 8.87 4,050
2010 2010-05-23 6.14 2,250
2011 2011-04-29 7.99 3,450
2012 2011-12-16 7.53 3,150
2013 2013-04-19 8.52 3,810
2014 2014-04-04 6.78 2,680
2015 2015-07-15 6.63 2,470
2016 2015-12-30 4.56 1,410
2017 2017-05-22 5.58 1,970
2018 2018-02-21 12.53 5,930
2019 2019-05-01 9.12 4,290
2020 2020-01-12 6.762 2,760
?
  Peak Gage-Height Qualification Codes.
?
  Peak Streamflow Qualification Codes.